Time;durP1;ratioP1;P1;durP2;ratioP2;P2;SDS_P1;SDS_P2;PMS_P1;PMS_P2;Temp;Humidity;BMP_temperature;BMP_pressure;BME280_temperature;BME280_humidity;BME280_pressure;Samples;Min_cycle;Max_cycle;Signal;HPM_P1;HPM_P2
2023/07/19 00:01:14;;;;;;;1.00;1.00;;;;;;;16.25;67.51;101360.94;5037035;28;20470;-85
2023/07/19 00:03:40;;;;;;;1.17;1.10;;;;;;;16.21;67.77;101360.13;5036319;28;20072;-86
2023/07/19 00:06:05;;;;;;;1.00;1.00;;;;;;;16.16;68.05;101355.94;5035784;28;20461;-85
2023/07/19 00:08:31;;;;;;;1.20;1.20;;;;;;;16.14;68.36;101363.88;5036836;28;20037;-85
2023/07/19 00:10:56;;;;;;;1.00;1.00;;;;;;;16.07;68.37;101344.03;5035754;28;20026;-85
2023/07/19 00:13:23;;;;;;;1.80;1.30;;;;;;;16.07;68.46;101349.25;5035960;28;20033;-86
2023/07/19 00:15:48;;;;;;;;;;;;;;;16.04;68.55;101346.72;5036613;28;20037;-85
2023/07/19 00:18:26;;;;;;;1.00;1.00;;;;;;;15.93;68.92;101330.47;5028124;28;19967;-86
2023/07/19 00:20:51;;;;;;;1.20;1.10;;;;;;;15.96;68.79;101343.47;5036357;28;20409;-86
2023/07/19 00:23:16;;;;;;;1.30;1.10;;;;;;;15.91;69.21;101348.84;5035428;28;20088;-85
2023/07/19 00:25:42;;;;;;;1.43;1.10;;;;;;;15.86;69.51;101342.88;5035409;28;20461;-85
2023/07/19 00:28:10;;;;;;;0.93;0.90;;;;;;;15.82;69.53;101331.63;5035900;28;20386;-85
2023/07/19 00:30:36;;;;;;;0.95;0.80;;;;;;;15.78;69.90;101329.16;5035772;28;20029;-85
2023/07/19 00:33:02;;;;;;;0.90;0.90;;;;;;;15.79;69.94;101330.88;5035725;28;20077;-85
2023/07/19 00:35:28;;;;;;;0.85;0.85;;;;;;;15.74;69.96;101317.91;5035514;28;20049;-85
2023/07/19 00:37:53;;;;;;;1.00;1.00;;;;;;;15.70;69.96;101318.91;5034841;28;20033;-86
2023/07/19 00:40:20;;;;;;;0.83;0.83;;;;;;;15.66;70.55;101317.25;5035396;28;20022;-86
2023/07/19 00:42:45;;;;;;;;;;;;;;;15.65;70.71;101315.56;5036358;28;20087;-86
2023/07/19 00:45:10;;;;;;;1.00;1.00;;;;;;;15.59;70.30;101308.75;5035922;28;19913;-85
2023/07/19 00:47:37;;;;;;;1.07;1.03;;;;;;;15.55;70.56;101309.75;5035963;28;20378;-86
2023/07/19 00:50:03;;;;;;;1.45;1.05;;;;;;;15.46;70.52;101297.78;5035273;28;20406;-86
2023/07/19 00:52:28;;;;;;;1.08;0.98;;;;;;;15.44;70.59;101300.44;5034939;28;20111;-85
2023/07/19 00:54:56;;;;;;;1.20;1.10;;;;;;;15.42;71.21;101306.63;5035079;28;20075;-86
2023/07/19 00:57:22;;;;;;;1.08;1.02;;;;;;;15.38;70.82;101297.13;5035565;28;20022;-86
2023/07/19 00:59:47;;;;;;;1.00;1.00;;;;;;;15.39;71.01;101298.84;5034702;28;20044;-86
2023/07/19 01:02:13;;;;;;;0.97;0.97;;;;;;;15.34;71.54;101295.50;5036013;28;20053;-85
2023/07/19 01:04:39;;;;;;;0.90;0.90;;;;;;;15.33;71.46;101296.41;5035374;28;20029;-85
2023/07/19 01:07:07;;;;;;;0.83;0.83;;;;;;;15.28;71.59;101302.63;5034847;28;20017;-86
2023/07/19 01:09:32;;;;;;;1.27;1.17;;;;;;;15.25;71.56;101304.47;5035523;28;20316;-85
2023/07/19 01:11:57;;;;;;;0.90;0.90;;;;;;;15.20;71.45;101307.19;5035957;28;20029;-85
2023/07/19 01:14:24;;;;;;;1.00;1.00;;;;;;;15.17;72.29;101302.06;5034520;28;20088;-85
2023/07/19 01:17:01;;;;;;;1.25;0.82;;;;;;;15.15;71.78;101290.78;5035134;28;20065;-85
2023/07/19 01:19:27;;;;;;;0.98;0.98;;;;;;;15.14;72.50;101297.75;5034376;28;20108;-85
2023/07/19 01:21:55;;;;;;;0.93;0.93;;;;;;;15.12;72.15;101298.72;5035190;28;20121;-85
2023/07/19 01:24:21;;;;;;;1.02;1.02;;;;;;;15.05;71.85;101279.72;5034970;28;20446;-85
2023/07/19 01:26:47;;;;;;;0.95;0.95;;;;;;;15.08;72.40;101287.47;5034474;28;20532;-85
2023/07/19 01:29:15;;;;;;;1.23;0.97;;;;;;;15.05;72.41;101284.94;5034885;28;20025;-85
2023/07/19 01:31:40;;;;;;;1.00;1.00;;;;;;;15.05;72.74;101284.09;5035195;28;20033;-85
2023/07/19 01:34:06;;;;;;;0.90;0.90;;;;;;;15.03;73.03;101273.66;5034430;28;20021;-85
2023/07/19 01:36:31;;;;;;;0.90;0.90;;;;;;;15.00;72.64;101270.28;5034438;28;20377;-86
2023/07/19 01:39:07;;;;;;;0.90;0.90;;;;;;;14.88;73.09;101250.56;5017198;28;20092;-85
2023/07/19 01:41:32;;;;;;;1.13;1.05;;;;;;;14.96;72.67;101264.28;5034249;28;20072;-85
2023/07/19 01:43:59;;;;;;;1.30;1.20;;;;;;;14.97;72.91;101258.16;5034404;28;20613;-84
2023/07/19 01:46:24;;;;;;;1.27;1.15;;;;;;;14.97;73.10;101263.41;5042038;23;20072;-85
2023/07/19 01:48:49;;;;;;;0.90;0.90;;;;;;;14.98;74.37;101270.34;5033567;28;20128;-86
2023/07/19 01:51:17;;;;;;;1.90;0.90;;;;;;;14.90;73.73;101261.84;5034652;28;20072;-85
2023/07/19 01:53:43;;;;;;;0.90;0.90;;;;;;;14.95;73.24;101278.25;5083797;22;20520;-85
2023/07/19 01:56:08;;;;;;;1.57;1.20;;;;;;;14.95;73.33;101271.28;5094106;28;20057;-85
2023/07/19 01:58:33;;;;;;;1.07;1.07;;;;;;;15.02;73.01;101276.34;5094784;28;20024;-85
2023/07/19 02:01:02;;;;;;;1.20;1.07;;;;;;;15.00;73.13;101278.13;5094901;28;20069;-84
2023/07/19 02:03:27;;;;;;;1.10;1.10;;;;;;;14.99;73.31;101272.06;5093383;28;20529;-85
2023/07/19 02:05:57;;;;;;;1.47;1.37;;;;;;;14.96;73.54;101270.38;5094035;28;20111;-85
2023/07/19 02:08:22;;;;;;;1.95;1.20;;;;;;;14.97;73.67;101272.06;5093624;28;20065;-85
2023/07/19 02:10:48;;;;;;;1.83;1.20;;;;;;;14.90;74.09;101267.91;5093615;28;20028;-85
2023/07/19 02:13:13;;;;;;;1.17;1.07;;;;;;;14.92;73.93;101266.13;5094393;28;20024;-85
2023/07/19 02:15:39;;;;;;;1.00;1.00;;;;;;;14.77;74.27;101241.28;5093931;28;20032;-85
2023/07/19 02:18:04;;;;;;;1.30;1.20;;;;;;;14.90;74.13;101257.47;5094245;28;20571;-85
2023/07/19 02:20:29;;;;;;;1.10;1.10;;;;;;;14.89;74.27;101258.38;5094292;28;20484;-85
2023/07/19 02:22:55;;;;;;;1.63;1.20;;;;;;;14.90;74.19;101260.09;5097001;28;20031;-85
2023/07/19 02:25:20;;;;;;;1.07;1.07;;;;;;;14.86;74.52;101249.75;5114439;28;20463;-83
2023/07/19 02:27:48;;;;;;;1.23;1.13;;;;;;;14.86;74.53;101247.97;5105505;28;20050;-85
2023/07/19 02:30:14;;;;;;;1.30;1.20;;;;;;;14.85;74.10;101250.66;5093222;28;20031;-85
2023/07/19 02:32:39;;;;;;;0.77;0.77;;;;;;;14.77;74.77;101243.88;5093695;28;20024;-85
2023/07/19 02:35:04;;;;;;;1.30;1.20;;;;;;;14.81;74.40;101258.56;5093885;28;20098;-85
2023/07/19 02:37:30;;;;;;;1.40;1.33;;;;;;;14.82;74.14;101254.22;5092197;28;20024;-85
2023/07/19 02:39:55;;;;;;;1.33;1.23;;;;;;;14.82;75.00;101248.97;5093896;28;20111;-85
2023/07/19 02:42:21;;;;;;;0.90;0.90;;;;;;;14.83;74.84;101248.94;5093218;28;20070;-85
2023/07/19 02:44:46;;;;;;;1.33;1.30;;;;;;;14.82;74.93;101246.38;5092865;28;20428;-84
2023/07/19 02:47:12;;;;;;;1.10;1.10;;;;;;;14.82;74.99;101244.59;5093095;28;20036;-84
2023/07/19 02:49:39;;;;;;;1.17;1.10;;;;;;;14.84;75.01;101252.41;5093984;28;20059;-85
2023/07/19 02:52:05;;;;;;;1.13;1.10;;;;;;;14.84;75.15;101260.25;5074966;28;20025;-85
2023/07/19 02:54:30;;;;;;;1.17;1.17;;;;;;;14.76;74.96;101246.50;5093665;28;20082;-85
2023/07/19 02:56:56;;;;;;;1.47;1.33;;;;;;;14.84;74.79;101252.41;5093174;28;20067;-85
2023/07/19 02:59:21;;;;;;;1.27;1.17;;;;;;;14.87;74.91;101257.53;5092745;28;20038;-85
2023/07/19 03:01:47;;;;;;;1.77;1.50;;;;;;;14.87;74.97;101257.53;5093211;28;20108;-85
2023/07/19 03:04:13;;;;;;;1.40;1.30;;;;;;;14.88;75.46;101255.81;5092663;28;20028;-84
2023/07/19 03:06:39;;;;;;;1.37;1.27;;;;;;;14.86;75.29;101247.13;5091795;28;20086;-85
2023/07/19 03:09:06;;;;;;;1.40;1.30;;;;;;;14.87;75.32;101252.31;5093193;28;20024;-85
2023/07/19 03:11:31;;;;;;;1.50;1.40;;;;;;;14.87;75.15;101248.84;5092801;28;20314;-85
2023/07/19 03:14:05;;;;;;;1.47;1.37;;;;;;;14.93;75.38;101254.78;5091915;28;20043;-85
2023/07/19 03:16:31;;;;;;;1.40;1.30;;;;;;;14.90;75.37;101247.00;5093398;28;20454;-85
2023/07/19 03:18:56;;;;;;;1.10;1.10;;;;;;;14.96;76.00;101266.91;5092073;28;20119;-85
2023/07/19 03:21:21;;;;;;;1.10;1.10;;;;;;;14.95;75.80;101257.34;5092830;28;20028;-84
2023/07/19 03:23:47;;;;;;;1.73;1.20;;;;;;;14.94;76.06;101259.13;5093107;28;20021;-85
2023/07/19 03:26:12;;;;;;;1.00;1.00;;;;;;;14.96;76.11;101259.94;5092148;28;20377;-85
2023/07/19 03:28:37;;;;;;;1.10;1.10;;;;;;;14.97;76.12;101263.41;5093045;28;20042;-84
2023/07/19 03:31:03;;;;;;;0.93;0.93;;;;;;;14.99;76.28;101261.59;5092966;28;20020;-85
2023/07/19 03:33:28;;;;;;;1.13;1.03;;;;;;;14.97;76.23;101261.63;5091874;28;20054;-84
2023/07/19 03:35:54;;;;;;;1.40;1.20;;;;;;;14.99;76.50;101272.06;5092785;28;20031;-82
2023/07/19 03:38:20;;;;;;;1.10;1.00;;;;;;;15.03;76.39;101273.66;5092442;28;20043;-83
2023/07/19 03:40:45;;;;;;;1.10;1.10;;;;;;;15.04;76.65;101275.38;5092069;28;20024;-82
2023/07/19 03:43:11;;;;;;;1.00;0.90;;;;;;;15.06;76.86;101276.22;5092698;28;20534;-83
2023/07/19 03:45:36;;;;;;;0.63;0.63;;;;;;;15.06;77.50;101273.59;5092674;28;20024;-82
2023/07/19 03:48:04;;;;;;;0.80;0.80;;;;;;;15.07;77.75;101274.47;5092014;28;20357;-83
2023/07/19 03:50:30;;;;;;;1.25;1.15;;;;;;;15.05;77.27;101274.50;5092228;28;20020;-83
2023/07/19 03:52:55;;;;;;;1.27;1.20;;;;;;;15.04;77.05;101274.53;5091876;28;20472;-83
2023/07/19 03:55:21;;;;;;;1.40;1.30;;;;;;;15.06;77.17;101276.22;5091118;28;20282;-83
2023/07/19 03:57:47;;;;;;;1.00;1.00;;;;;;;15.08;77.53;101270.97;5092411;28;20031;-83
2023/07/19 04:00:12;;;;;;;1.13;1.13;;;;;;;15.09;77.90;101277.88;5092120;28;20103;-83
2023/07/19 04:02:37;;;;;;;1.80;1.17;;;;;;;15.06;78.03;101267.53;5091212;28;20043;-83
2023/07/19 04:05:03;;;;;;;1.10;1.00;;;;;;;15.10;77.85;101275.22;5092585;28;20480;-83
2023/07/19 04:07:28;;;;;;;0.83;0.83;;;;;;;15.10;77.90;101274.34;5092019;28;20024;-83
2023/07/19 04:09:57;;;;;;;1.37;1.27;;;;;;;15.10;78.25;101277.84;5091207;28;20039;-83
2023/07/19 04:12:22;;;;;;;1.25;1.17;;;;;;;15.11;77.89;101274.34;5092167;28;20028;-83
2023/07/19 04:14:47;;;;;;;1.40;1.30;;;;;;;15.11;78.23;101263.88;5092235;28;20024;-83
2023/07/19 04:17:13;;;;;;;1.00;1.00;;;;;;;15.13;78.24;101264.69;5091634;28;20468;-83
2023/07/19 04:19:38;;;;;;;1.20;1.10;;;;;;;15.15;78.39;101275.09;5092291;28;20028;-83
2023/07/19 04:22:04;;;;;;;1.43;1.33;;;;;;;15.17;78.82;101275.06;5091207;28;20067;-84
2023/07/19 04:24:29;;;;;;;2.30;1.10;;;;;;;15.16;78.57;101266.38;5091567;28;20057;-84
2023/07/19 04:26:55;;;;;;;0.80;0.80;;;;;;;15.14;78.68;101265.53;5092306;28;20027;-85
2023/07/19 04:29:21;;;;;;;0.80;0.80;;;;;;;15.14;79.07;101266.38;5091025;28;20376;-83
2023/07/19 04:31:46;;;;;;;1.00;1.00;;;;;;;15.16;78.91;101270.72;5096016;28;20047;-82
2023/07/19 04:34:12;;;;;;;0.90;0.90;;;;;;;15.16;78.90;101271.59;5095738;28;20119;-82
2023/07/19 04:36:37;;;;;;;0.90;0.90;;;;;;;15.18;79.16;101272.41;5095350;28;20028;-82
2023/07/19 04:39:03;;;;;;;0.90;0.90;;;;;;;15.10;79.10;101254.31;5095920;28;20051;-83
2023/07/19 04:41:29;;;;;;;1.20;1.10;;;;;;;15.18;79.00;101272.41;5095509;28;20016;-82
2023/07/19 04:43:54;;;;;;;1.17;1.17;;;;;;;15.21;79.06;101280.16;5094908;28;20085;-82
2023/07/19 04:46:20;;;;;;;0.93;0.83;;;;;;;15.21;79.97;101269.69;5095341;28;20387;-83
2023/07/19 04:48:45;;;;;;;0.90;0.90;;;;;;;15.26;79.70;101274.78;5096100;28;20093;-84
2023/07/19 04:51:10;;;;;;;1.17;1.07;;;;;;;15.27;79.82;101276.50;5094843;28;20018;-86
2023/07/19 04:53:36;;;;;;;1.20;1.10;;;;;;;15.32;79.64;101276.38;5095424;28;20040;-86
2023/07/19 04:56:04;;;;;;;0.93;0.93;;;;;;;15.35;79.84;101277.16;5095783;28;20114;-87
2023/07/19 04:58:29;;;;;;;0.90;0.90;;;;;;;15.37;79.89;101285.81;5094750;28;20073;-87
2023/07/19 05:00:55;;;;;;;2.30;1.20;;;;;;;15.41;79.68;101286.59;5095036;28;20419;-86
2023/07/19 05:03:21;;;;;;;1.40;1.30;;;;;;;15.44;79.97;101282.13;5095213;28;20020;-86
2023/07/19 05:05:49;;;;;;;1.10;1.10;;;;;;;15.46;80.11;101278.63;5094543;28;20038;-87
2023/07/19 05:08:15;;;;;;;1.02;1.02;;;;;;;15.47;80.60;101278.56;5095633;28;20020;-89
2023/07/19 05:10:40;;;;;;;0.70;0.70;;;;;;;15.54;80.80;101284.47;5096550;28;20086;-93
2023/07/19 05:13:05;;;;;;;1.10;1.00;;;;;;;15.58;80.37;101281.72;5096242;28;20048;-95
2023/07/19 05:15:32;;;;;;;0.80;0.80;;;;;;;15.62;80.54;101284.25;5096657;28;20023;-88
2023/07/19 05:17:57;;;;;;;1.20;1.17;;;;;;;15.67;80.91;101283.22;5095116;28;20035;-82
2023/07/19 05:20:23;;;;;;;1.00;1.00;;;;;;;15.71;80.81;101289.22;5093841;28;20024;-82
2023/07/19 05:22:49;;;;;;;1.33;1.23;;;;;;;15.79;80.34;101297.69;5095425;28;20032;-82
2023/07/19 05:25:14;;;;;;;1.48;1.38;;;;;;;15.84;80.47;101292.31;5094875;28;20031;-82
2023/07/19 05:27:43;;;;;;;0.90;0.90;;;;;;;15.93;81.52;101288.59;5094388;28;20384;-82
2023/07/19 05:30:09;;;;;;;0.90;0.90;;;;;;;16.00;80.69;101288.38;5094434;28;20024;-82
2023/07/19 05:32:34;;;;;;;0.75;0.75;;;;;;;16.10;80.83;101282.84;5094242;28;20384;-82
2023/07/19 05:35:00;;;;;;;1.13;1.00;;;;;;;16.20;81.02;101289.50;5094868;28;20024;-83
2023/07/19 05:37:25;;;;;;;0.70;0.70;;;;;;;16.27;80.81;101285.75;5094697;28;20092;-81
2023/07/19 05:39:53;;;;;;;1.13;0.80;;;;;;;16.35;81.01;101280.28;5094101;28;20030;-82
2023/07/19 05:42:21;;;;;;;0.80;0.80;;;;;;;16.38;80.46;101282.81;5093698;28;20030;-82
2023/07/19 05:44:56;;;;;;;0.88;0.88;;;;;;;16.50;82.60;101287.66;5094445;28;20504;-82
2023/07/19 05:47:21;;;;;;;2.92;1.60;;;;;;;16.58;80.74;101279.53;5093651;28;20043;-82
2023/07/19 05:49:46;;;;;;;1.57;1.30;;;;;;;16.65;80.22;101264.47;5094492;28;20472;-82
2023/07/19 05:52:12;;;;;;;1.00;0.90;;;;;;;16.83;79.94;101287.41;5094019;28;20030;-82
2023/07/19 05:54:38;;;;;;;0.97;0.97;;;;;;;16.89;79.50;101275.03;5093589;28;20028;-82
2023/07/19 05:57:04;;;;;;;1.08;1.08;;;;;;;16.97;79.17;101278.25;5094378;28;20028;-83
2023/07/19 05:59:29;;;;;;;0.70;0.70;;;;;;;17.04;79.21;101277.13;5094068;28;20436;-82
2023/07/19 06:01:54;;;;;;;0.93;0.80;;;;;;;17.09;79.13;101285.69;5093631;28;20036;-83
2023/07/19 06:04:20;;;;;;;0.60;0.60;;;;;;;17.09;80.55;101285.69;5093436;28;20077;-82
2023/07/19 06:06:46;;;;;;;1.67;1.30;;;;;;;17.10;79.18;101282.16;5094662;28;20020;-83
2023/07/19 06:09:11;;;;;;;1.13;1.13;;;;;;;17.16;78.71;101285.47;5093044;28;20035;-83
2023/07/19 06:11:37;;;;;;;1.13;1.13;;;;;;;17.21;79.11;101283.53;5094335;28;20028;-82
2023/07/19 06:14:03;;;;;;;1.10;1.10;;;;;;;17.33;79.44;101287.47;5093934;28;20020;-82
2023/07/19 06:16:28;;;;;;;1.13;1.08;;;;;;;17.44;78.33;101287.94;5093090;28;20028;-82
2023/07/19 06:18:54;;;;;;;1.00;0.90;;;;;;;17.59;78.04;101291.75;5093741;28;20115;-82
2023/07/19 06:21:19;;;;;;;1.50;1.40;;;;;;;17.68;77.93;101280.88;5093829;28;20181;-83
2023/07/19 06:23:44;;;;;;;0.90;0.90;;;;;;;17.80;77.43;101276.09;5093151;28;20024;-82
2023/07/19 06:26:10;;;;;;;0.80;0.80;;;;;;;17.91;77.47;101272.13;5093372;28;20040;-82
2023/07/19 06:28:36;;;;;;;1.05;1.05;;;;;;;18.05;77.41;101273.41;5093796;28;20024;-82
2023/07/19 06:31:01;;;;;;;0.87;0.87;;;;;;;18.19;76.34;101272.84;5093215;28;20065;-86
2023/07/19 06:33:31;;;;;;;0.60;0.60;;;;;;;18.32;76.40;101273.19;5093097;28;20061;-85
2023/07/19 06:35:57;;;;;;;0.70;0.70;;;;;;;18.41;75.79;101267.53;5092868;28;20123;-86
2023/07/19 06:38:26;;;;;;;0.68;0.68;;;;;;;18.47;75.15;101279.56;5093343;28;20024;-86
2023/07/19 06:40:51;;;;;;;0.95;0.95;;;;;;;18.72;75.37;101270.66;5093553;28;20028;-86
2023/07/19 06:43:17;;;;;;;1.23;1.10;;;;;;;19.06;74.71;101279.75;5092794;28;20028;-86
2023/07/19 06:45:45;;;;;;;1.50;1.40;;;;;;;19.57;74.55;101278.31;5093519;28;20074;-86
2023/07/19 06:48:10;;;;;;;1.20;1.10;;;;;;;20.35;72.33;101280.78;5093271;28;20081;-86
2023/07/19 06:50:35;;;;;;;2.50;1.70;;;;;;;21.04;70.04;101278.25;5092552;28;20012;-86
2023/07/19 06:53:01;;;;;;;4.17;2.03;;;;;;;21.51;67.67;101281.91;5092681;28;20109;-86
2023/07/19 06:55:26;;;;;;;2.33;1.93;;;;;;;21.77;64.91;101269.09;5093134;28;20027;-85
2023/07/19 06:57:51;;;;;;;2.30;2.10;;;;;;;22.14;66.81;101285.47;5093212;28;20525;-87
2023/07/19 07:00:18;;;;;;;2.87;1.77;;;;;;;22.44;66.23;101284.69;5083942;28;20035;-86
2023/07/19 07:02:45;;;;;;;2.63;1.70;;;;;;;22.64;63.70;101280.84;5072356;28;20469;-86
2023/07/19 07:05:10;;;;;;;;;;;;;;;22.67;64.39;101287.78;5086864;28;20036;-85
2023/07/19 07:07:36;;;;;;;;;;;;;;;22.64;64.09;101282.66;5092801;28;19926;-85
2023/07/19 07:10:05;;;;;;;1.40;1.23;;;;;;;22.51;63.87;101274.59;5092743;28;20271;-86
2023/07/19 07:12:30;;;;;;;1.48;1.38;;;;;;;22.36;63.64;101287.75;5092218;28;20039;-87
2023/07/19 07:14:56;;;;;;;1.02;1.02;;;;;;;22.20;64.45;101287.78;5093485;28;20024;-85
2023/07/19 07:17:21;;;;;;;2.00;1.50;;;;;;;22.11;63.33;101288.31;5092222;28;20024;-84
2023/07/19 07:19:53;;;;;;;1.50;1.40;;;;;;;22.02;64.67;101294.09;5092373;28;20020;-78
2023/07/19 07:22:20;;;;;;;1.30;1.10;;;;;;;21.96;65.22;101289.16;5092273;28;20106;-83
2023/07/19 07:24:45;;;;;;;2.38;1.60;;;;;;;21.89;63.92;101286.03;5092831;28;20036;-84
2023/07/19 07:27:11;;;;;;;1.25;1.20;;;;;;;21.80;64.44;101283.91;5091683;28;20024;-84
2023/07/19 07:29:36;;;;;;;1.97;1.50;;;;;;;21.72;64.70;101277.25;5092941;28;20020;-84
2023/07/19 07:32:02;;;;;;;1.93;1.60;;;;;;;21.65;64.25;101285.59;5092127;28;20027;-84
2023/07/19 07:34:33;;;;;;;1.33;1.17;;;;;;;21.51;65.08;101275.75;5092017;28;20034;-84
2023/07/19 07:36:58;;;;;;;1.25;1.15;;;;;;;21.52;65.14;101277.44;5092874;28;20407;-84
2023/07/19 07:39:24;;;;;;;0.97;0.97;;;;;;;21.49;65.95;101273.19;5091780;28;20024;-84
2023/07/19 07:41:49;;;;;;;1.00;1.00;;;;;;;21.43;65.35;101277.03;5093281;28;20073;-84
2023/07/19 07:44:15;;;;;;;1.03;1.00;;;;;;;21.38;66.42;101281.72;5092313;28;20535;-84
2023/07/19 07:46:40;;;;;;;0.73;0.73;;;;;;;21.34;66.78;101274.88;5092047;28;20082;-84
2023/07/19 07:49:05;;;;;;;1.17;1.07;;;;;;;21.34;65.41;101271.38;5092097;28;20418;-84
2023/07/19 07:51:31;;;;;;;1.00;0.83;;;;;;;21.33;66.35;101272.34;5092800;28;20141;-85
2023/07/19 07:53:56;;;;;;;0.80;0.80;;;;;;;21.33;65.73;101272.34;5091563;28;20089;-84
2023/07/19 07:56:23;;;;;;;0.80;0.80;;;;;;;21.30;65.27;101278.63;5092424;28;20060;-84
2023/07/19 07:58:49;;;;;;;1.00;1.00;;;;;;;21.24;65.12;101273.69;5092785;28;20038;-84
2023/07/19 08:01:14;;;;;;;1.70;1.37;;;;;;;21.22;65.89;101271.09;5091526;28;20099;-84
2023/07/19 08:03:39;;;;;;;0.97;0.90;;;;;;;21.39;65.96;101272.00;5093089;28;20077;-84
2023/07/19 08:06:05;;;;;;;1.10;1.10;;;;;;;21.55;65.13;101269.38;5096160;28;20028;-85
2023/07/19 08:08:30;;;;;;;1.60;1.40;;;;;;;21.81;64.35;101273.22;5095863;28;20047;-85
2023/07/19 08:10:56;;;;;;;4.03;1.67;;;;;;;21.80;61.59;101278.63;5096727;28;20388;-84
2023/07/19 08:13:21;;;;;;;1.90;1.23;;;;;;;21.72;62.29;101273.75;5095816;28;20535;-85
2023/07/19 08:15:48;;;;;;;1.77;1.33;;;;;;;21.84;62.95;101275.72;5095411;28;20020;-85
2023/07/19 08:18:13;;;;;;;2.85;1.58;;;;;;;21.99;62.08;101268.69;5096127;28;20031;-85
2023/07/19 08:20:39;;;;;;;1.23;1.20;;;;;;;22.29;62.62;101264.38;5096147;28;20472;-85
2023/07/19 08:23:04;;;;;;;1.15;1.05;;;;;;;22.59;62.79;101255.59;5095828;28;20278;-83
2023/07/19 08:25:30;;;;;;;2.97;1.40;;;;;;;22.71;60.74;101248.75;5116300;28;20084;-84
2023/07/19 08:27:55;;;;;;;1.30;1.20;;;;;;;22.85;61.43;101243.47;5100159;28;20119;-84
2023/07/19 08:30:21;;;;;;;1.50;1.27;;;;;;;22.99;59.61;101247.91;5085878;28;20112;-84
2023/07/19 08:32:47;;;;;;;0.80;0.80;;;;;;;23.02;60.85;101254.81;5096916;28;20369;-84
2023/07/19 08:35:16;;;;;;;1.80;1.00;;;;;;;23.00;59.31;101260.22;5094565;28;20031;-83
2023/07/19 08:37:45;;;;;;;1.40;1.00;;;;;;;22.99;60.99;101262.00;5095510;28;20036;-85
2023/07/19 08:40:12;;;;;;;0.70;0.70;;;;;;;22.99;58.75;101259.34;5095542;28;20028;-79
2023/07/19 08:42:38;;;;;;;0.77;0.77;;;;;;;22.93;59.58;101259.72;5095767;28;20032;-85
2023/07/19 08:45:05;;;;;;;1.03;0.70;;;;;;;22.96;60.85;101272.78;5095843;28;20396;-85
2023/07/19 08:47:31;;;;;;;0.70;0.70;;;;;;;22.95;60.40;101251.69;5095687;28;20024;-85
2023/07/19 08:49:58;;;;;;;0.70;0.70;;;;;;;22.98;60.44;101262.09;5094760;28;20460;-85
2023/07/19 08:52:26;;;;;;;2.30;1.40;;;;;;;22.93;60.29;101253.56;5095620;28;20504;-84
2023/07/19 08:54:52;;;;;;;0.98;0.88;;;;;;;22.96;60.18;101262.19;5095616;28;20035;-84
2023/07/19 08:57:20;;;;;;;0.90;0.80;;;;;;;23.07;59.91;101264.16;5094795;28;20032;-79
2023/07/19 08:59:46;;;;;;;1.00;1.00;;;;;;;23.17;59.22;101263.59;5095039;28;20384;-85
2023/07/19 09:02:11;;;;;;;0.80;0.80;;;;;;;23.14;58.87;101262.00;5095426;28;20102;-87
2023/07/19 09:04:38;;;;;;;0.73;0.73;;;;;;;23.17;58.06;101260.94;5094633;28;20103;-84
2023/07/19 09:07:04;;;;;;;1.20;1.10;;;;;;;23.34;59.02;101265.22;5095613;28;20028;-84
2023/07/19 09:09:29;;;;;;;2.38;1.33;;;;;;;23.47;58.92;101266.16;5095381;28;20028;-85
2023/07/19 09:11:55;;;;;;;1.40;1.30;;;;;;;23.47;58.76;101268.81;5094746;28;20034;-84
2023/07/19 09:14:36;;;;;;;1.37;1.27;;;;;;;23.46;58.65;101266.28;5094388;28;20031;-84
2023/07/19 09:17:02;;;;;;;1.35;1.25;;;;;;;23.49;59.24;101263.41;5094492;28;20035;-84
2023/07/19 09:19:28;;;;;;;3.22;1.60;;;;;;;23.51;58.58;101262.38;5094383;28;20020;-84
2023/07/19 09:21:53;;;;;;;1.33;1.23;;;;;;;23.44;58.47;101261.03;5095359;28;20016;-84
2023/07/19 09:24:19;;;;;;;2.50;1.40;;;;;;;23.39;57.57;101263.16;5094382;28;20034;-85
2023/07/19 09:26:50;;;;;;;1.50;1.40;;;;;;;23.54;58.29;101256.88;5094121;28;20024;-85
2023/07/19 09:29:22;;;;;;;1.25;1.13;;;;;;;23.63;58.34;101263.38;5094841;28;20388;-85
2023/07/19 09:31:49;;;;;;;0.90;0.82;;;;;;;23.59;57.38;101260.09;5087164;28;20028;-84
2023/07/19 09:34:15;;;;;;;1.05;1.00;;;;;;;23.51;59.09;101259.72;5095028;28;20024;-84
2023/07/19 09:36:40;;;;;;;1.10;0.90;;;;;;;23.51;59.36;101261.50;5094793;28;20535;-85
2023/07/19 09:39:06;;;;;;;1.88;1.50;;;;;;;23.47;58.65;101255.56;5094209;28;20039;-84
2023/07/19 09:41:32;;;;;;;2.17;1.50;;;;;;;23.40;58.89;101263.03;5094748;28;20020;-85
2023/07/19 09:43:58;;;;;;;2.35;1.50;;;;;;;23.40;59.21;101263.03;5094779;28;20016;-84
2023/07/19 09:46:25;;;;;;;1.50;1.40;;;;;;;23.42;58.75;101260.28;5093587;28;20039;-85
2023/07/19 09:48:53;;;;;;;2.13;1.40;;;;;;;23.44;58.86;101261.91;5094176;28;20032;-87
2023/07/19 09:51:19;;;;;;;1.40;1.30;;;;;;;23.47;58.79;101257.38;5093421;28;20028;-86
2023/07/19 09:53:47;;;;;;;1.00;0.98;;;;;;;23.66;56.12;101251.72;5093609;28;20071;-86
2023/07/19 09:56:12;;;;;;;1.30;1.20;;;;;;;23.84;58.69;101258.50;5094312;28;20028;-86
2023/07/19 09:58:39;;;;;;;0.90;0.90;;;;;;;24.11;58.08;101254.16;5094419;28;20521;-87
2023/07/19 10:01:04;;;;;;;0.98;0.77;;;;;;;24.21;57.85;101247.31;5093925;28;20020;-87
2023/07/19 10:03:29;;;;;;;0.77;0.77;;;;;;;24.23;56.86;101265.75;5094606;28;20552;-86
2023/07/19 10:05:58;;;;;;;3.17;1.70;;;;;;;24.09;55.04;101259.59;5094689;28;20059;-90
2023/07/19 10:08:24;;;;;;;2.53;1.70;;;;;;;23.86;56.54;101255.75;5093358;28;20035;-85
2023/07/19 10:10:59;;;;;;;1.43;1.33;;;;;;;23.72;56.88;101257.50;5094180;28;20028;-87
2023/07/19 10:13:32;;;;;;;2.35;1.70;;;;;;;23.54;55.74;101256.88;5093586;28;20034;-86
2023/07/19 10:15:58;;;;;;;1.38;1.20;;;;;;;23.50;57.06;101258.03;5093615;28;20020;-86
2023/07/19 10:18:24;;;;;;;1.15;1.00;;;;;;;23.48;56.98;101257.28;5146747;22;20007;-86
2023/07/19 10:21:00;;;;;;;;;;;;;;;23.39;57.83;101261.34;5093945;28;20032;-85
2023/07/19 10:23:25;;;;;;;1.20;1.10;;;;;;;23.36;58.00;101258.03;5093845;28;20322;-86
2023/07/19 10:25:51;;;;;;;0.93;0.93;;;;;;;23.36;57.74;101258.88;5093734;28;20089;-86
2023/07/19 10:28:26;;;;;;;1.23;1.13;;;;;;;23.40;58.12;101259.56;5092192;28;20099;-86
2023/07/19 10:30:55;;;;;;;1.10;0.80;;;;;;;23.50;57.83;101263.31;5094000;28;20032;-86
2023/07/19 10:33:26;;;;;;;0.95;0.93;;;;;;;23.73;57.48;101266.31;5093720;28;20024;-85
2023/07/19 10:35:55;;;;;;;0.65;0.65;;;;;;;23.95;55.85;101268.44;5093297;28;20407;-86
2023/07/19 10:38:23;;;;;;;0.85;0.85;;;;;;;24.11;56.01;101262.97;5055192;28;20459;-85
2023/07/19 10:41:00;;;;;;;0.88;0.80;;;;;;;24.26;54.88;101268.22;5073083;28;20025;-87
2023/07/19 10:43:27;;;;;;;1.20;1.10;;;;;;;24.30;50.77;101259.09;5072205;28;20028;-85
2023/07/19 10:45:53;;;;;;;1.73;1.42;;;;;;;24.24;53.82;101263.03;5073241;28;20098;-87
2023/07/19 10:48:23;;;;;;;1.33;1.20;;;;;;;24.19;54.53;101254.50;5073282;28;20443;-87
2023/07/19 10:50:48;;;;;;;1.23;1.13;;;;;;;24.13;54.73;101257.56;5072397;28;20040;-86
2023/07/19 10:53:14;;;;;;;0.80;0.80;;;;;;;24.09;54.90;101264.03;5073000;28;20024;-87
2023/07/19 10:55:40;;;;;;;0.70;0.70;;;;;;;24.23;54.79;101257.78;5073638;28;20020;-88
2023/07/19 10:58:06;;;;;;;1.70;1.00;;;;;;;24.38;53.60;101256.78;5072019;28;20070;-86
2023/07/19 11:00:34;;;;;;;0.90;0.82;;;;;;;24.40;52.53;101259.31;5070999;28;20146;-86
2023/07/19 11:03:00;;;;;;;0.98;0.90;;;;;;;24.37;54.20;101255.91;5072337;28;20431;-86
2023/07/19 11:05:25;;;;;;;1.00;1.00;;;;;;;24.36;53.70;101248.94;5072807;28;20178;-87
2023/07/19 11:07:50;;;;;;;0.90;0.80;;;;;;;24.39;54.45;101265.56;5072721;28;20051;-86
2023/07/19 11:10:16;;;;;;;0.97;0.93;;;;;;;24.32;53.90;101270.47;5072614;28;20021;-88
2023/07/19 11:12:42;;;;;;;0.55;0.50;;;;;;;24.23;54.88;101271.94;5073411;28;20487;-88
2023/07/19 11:15:08;;;;;;;0.50;0.50;;;;;;;24.09;56.14;101275.50;5072567;28;20107;-86
2023/07/19 11:17:35;;;;;;;0.80;0.80;;;;;;;23.78;60.34;101258.88;5072412;28;20388;-87
2023/07/19 11:20:01;;;;;;;1.70;1.10;;;;;;;23.43;59.78;101262.00;5072814;28;20097;-86
2023/07/19 11:22:27;;;;;;;0.80;0.80;;;;;;;23.24;61.11;101257.88;5072903;28;20025;-86